createdAt,value
2018-09-26T00:00:45.393Z,52.09
2018-09-26T00:03:18.807Z,51.55
2018-09-26T00:05:48.572Z,52.08
2018-09-26T00:08:17.880Z,51.82
2018-09-26T00:10:47.255Z,52.59
2018-09-26T00:13:16.432Z,52.12
2018-09-26T00:15:45.833Z,51.97
2018-09-26T00:18:14.820Z,52.01
2018-09-26T00:20:43.816Z,52.71
2018-09-26T00:23:12.738Z,53.31
2018-09-26T00:25:41.644Z,53.48
2018-09-26T00:28:10.474Z,52.63
2018-09-26T00:30:39.441Z,52.35
2018-09-26T00:33:08.454Z,52.92
2018-09-26T00:35:37.334Z,53.29
2018-09-26T00:38:06.253Z,53.83
2018-09-26T00:40:35.124Z,54.28
2018-09-26T00:43:04.095Z,53.51
2018-09-26T00:45:32.973Z,53.18
2018-09-26T00:48:01.833Z,53.17
2018-09-26T00:50:30.792Z,53.02
2018-09-26T00:52:59.599Z,53.36
2018-09-26T00:55:28.423Z,53.49
2018-09-26T00:57:57.425Z,53.82
2018-09-26T01:00:26.287Z,53.98
2018-09-26T01:02:55.324Z,54.11
2018-09-26T01:05:24.124Z,53.59
2018-09-26T01:07:53.122Z,54.12
2018-09-26T01:10:22.032Z,54.79
2018-09-26T01:12:51.021Z,54.98
2018-09-26T01:15:19.847Z,55.46
2018-09-26T01:17:48.662Z,55.63
2018-09-26T01:20:17.457Z,56.41
2018-09-26T01:22:46.409Z,56.59
2018-09-26T01:25:15.347Z,57.11
2018-09-26T01:27:44.222Z,54.50
2018-09-26T01:30:13.178Z,54.61
2018-09-26T01:32:41.981Z,53.96
2018-09-26T01:35:10.771Z,54.37
2018-09-26T01:37:39.649Z,54.60
2018-09-26T01:40:08.594Z,54.42
2018-09-26T01:42:37.452Z,55.09
2018-09-26T01:45:06.868Z,55.21
2018-09-26T01:47:35.809Z,54.78
2018-09-26T01:50:04.773Z,55.41
2018-09-26T01:52:33.690Z,55.45
2018-09-26T01:55:02.513Z,55.64
2018-09-26T01:57:31.397Z,55.85
2018-09-26T02:00:00.188Z,55.62
2018-09-26T02:02:29.056Z,56.51
2018-09-26T02:04:57.856Z,56.73
2018-09-26T02:07:26.689Z,57.17
2018-09-26T02:09:55.503Z,57.20
2018-09-26T02:12:24.420Z,57.48
2018-09-26T02:14:53.545Z,57.47
2018-09-26T02:17:22.490Z,57.37
2018-09-26T02:19:51.288Z,57.79
2018-09-26T02:22:20.108Z,58.43
2018-09-26T02:24:49.031Z,58.19
2018-09-26T02:27:17.936Z,58.25
2018-09-26T02:29:46.705Z,58.34
2018-09-26T02:32:15.623Z,58.13
2018-09-26T02:34:44.440Z,58.82
2018-09-26T02:37:13.228Z,58.56
2018-09-26T02:39:42.011Z,59.19
2018-09-26T02:42:10.809Z,58.89
2018-09-26T02:44:39.664Z,58.26
2018-09-26T02:47:08.546Z,58.67
2018-09-26T02:49:37.364Z,58.21
2018-09-26T02:52:06.236Z,58.37
2018-09-26T02:54:35.028Z,59.04
2018-09-26T02:57:03.857Z,59.35
2018-09-26T02:59:32.741Z,59.41
2018-09-26T03:02:01.662Z,59.50
2018-09-26T03:04:30.557Z,59.94
2018-09-26T03:06:59.415Z,60.19
2018-09-26T03:09:28.239Z,60.42
2018-09-26T03:11:57.299Z,60.05
2018-09-26T03:14:26.206Z,59.92
2018-09-26T03:16:55.062Z,59.51
2018-09-26T03:19:24.010Z,59.59
2018-09-26T03:21:52.923Z,59.80
2018-09-26T03:24:21.735Z,59.92
2018-09-26T03:26:50.625Z,60.17
2018-09-26T03:29:19.503Z,61.02
2018-09-26T03:31:48.425Z,60.16
2018-09-26T03:34:17.284Z,60.48
2018-09-26T03:36:46.133Z,60.55
2018-09-26T03:39:15.074Z,59.64
2018-09-26T03:41:44.095Z,60.23
2018-09-26T03:44:12.964Z,60.03
2018-09-26T03:46:41.958Z,60.26
2018-09-26T03:49:10.732Z,60.17
2018-09-26T03:51:39.604Z,60.46
2018-09-26T03:54:08.549Z,61.00
2018-09-26T03:56:37.381Z,60.96
2018-09-26T03:59:06.631Z,60.65
2018-09-26T04:01:35.480Z,61.17
2018-09-26T04:04:04.329Z,60.89
2018-09-26T04:06:39.733Z,60.80
2018-09-26T04:09:09.459Z,60.82
2018-09-26T04:11:38.571Z,61.06
2018-09-26T04:14:07.455Z,60.42
2018-09-26T04:16:36.270Z,60.73
2018-09-26T04:19:05.057Z,60.83
2018-09-26T04:21:33.924Z,60.64
2018-09-26T04:24:02.795Z,60.20
2018-09-26T04:26:32.640Z,59.63
2018-09-26T04:29:01.488Z,59.62
2018-09-26T04:31:30.313Z,60.01
2018-09-26T04:33:59.242Z,60.44
2018-09-26T04:36:28.285Z,59.83
2018-09-26T04:38:57.253Z,59.68
2018-09-26T04:41:26.172Z,58.84
2018-09-26T04:43:55.098Z,59.10
2018-09-26T04:46:23.945Z,59.21
2018-09-26T04:48:53.060Z,59.77
2018-09-26T04:51:21.953Z,59.78
2018-09-26T04:53:51.317Z,58.43
2018-09-26T04:56:20.318Z,58.36
2018-09-26T04:58:49.292Z,57.59
2018-09-26T05:01:18.111Z,56.62
2018-09-26T05:03:46.968Z,57.08
2018-09-26T05:06:15.785Z,56.77
2018-09-26T05:08:44.594Z,56.97
2018-09-26T05:11:13.483Z,56.64
2018-09-26T05:13:42.319Z,56.74
2018-09-26T05:16:11.117Z,56.09
2018-09-26T05:18:39.945Z,56.36
2018-09-26T05:21:09.304Z,57.08
2018-09-26T05:23:38.205Z,56.25
2018-09-26T05:26:07.157Z,56.34
2018-09-26T05:28:36.072Z,56.26
2018-09-26T05:31:04.919Z,56.05
2018-09-26T05:33:33.751Z,56.07
2018-09-26T05:36:02.632Z,56.10
2018-09-26T05:38:31.489Z,55.81
2018-09-26T05:41:00.492Z,55.48
2018-09-26T05:43:29.317Z,55.53
2018-09-26T05:45:58.111Z,55.78
2018-09-26T05:48:26.926Z,55.71
2018-09-26T05:50:55.966Z,56.03
2018-09-26T05:53:24.928Z,56.33
2018-09-26T05:55:53.929Z,56.04
2018-09-26T05:58:22.757Z,56.03
2018-09-26T06:00:51.555Z,55.30
2018-09-26T06:03:20.373Z,54.94
2018-09-26T06:05:49.149Z,54.87
2018-09-26T06:08:18.093Z,55.01
2018-09-26T06:10:46.977Z,54.94
2018-09-26T06:13:16.260Z,55.01
2018-09-26T06:15:45.245Z,54.36
2018-09-26T06:18:14.074Z,54.63
2018-09-26T06:20:42.889Z,54.43
2018-09-26T06:23:11.764Z,54.06
2018-09-26T06:25:40.661Z,54.10
2018-09-26T06:28:09.467Z,54.37
2018-09-26T06:30:38.433Z,55.16
2018-09-26T06:33:07.460Z,54.79
2018-09-26T06:35:36.345Z,55.67
2018-09-26T06:38:05.192Z,55.40
2018-09-26T06:40:34.181Z,55.32
2018-09-26T06:43:03.180Z,54.95
2018-09-26T06:45:32.092Z,54.62
2018-09-26T06:48:00.944Z,54.59
2018-09-26T06:50:29.856Z,55.02
2018-09-26T06:52:58.636Z,54.56
2018-09-26T06:55:27.439Z,54.42
2018-09-26T06:57:56.392Z,53.87
2018-09-26T07:00:25.809Z,53.43
2018-09-26T07:02:54.830Z,53.32
2018-09-26T07:05:25.433Z,53.31
2018-09-26T07:07:54.208Z,51.89
2018-09-26T07:10:23.194Z,51.83
2018-09-26T07:12:52.316Z,52.09
2018-09-26T07:15:21.286Z,51.89
2018-09-26T07:17:50.156Z,51.69
2018-09-26T07:20:19.076Z,50.94
2018-09-26T07:22:48.266Z,50.94
2018-09-26T07:25:17.889Z,50.26
2018-09-26T07:27:46.747Z,50.36
2018-09-26T07:30:17.249Z,49.26
2018-09-26T07:32:46.068Z,49.96
2018-09-26T07:35:14.908Z,49.89
2018-09-26T07:37:43.840Z,50.43
2018-09-26T07:40:12.884Z,49.54
2018-09-26T07:42:41.947Z,49.61
2018-09-26T07:45:10.777Z,48.74
2018-09-26T07:47:39.585Z,47.85
2018-09-26T07:50:08.568Z,48.05
2018-09-26T07:52:37.453Z,47.45
2018-09-26T07:55:06.311Z,47.65
2018-09-26T07:57:36.195Z,47.87
2018-09-26T08:00:08.257Z,47.48
2018-09-26T08:02:37.321Z,47.39
2018-09-26T08:05:06.823Z,47.47
2018-09-26T08:07:35.723Z,47.15
2018-09-26T08:10:04.556Z,46.34
2018-09-26T08:12:33.601Z,46.17
2018-09-26T08:15:02.486Z,45.68
2018-09-26T08:17:31.372Z,45.84
2018-09-26T08:20:00.310Z,45.72
2018-09-26T08:22:29.224Z,45.29
2018-09-26T08:24:58.124Z,46.49
2018-09-26T08:27:27.072Z,45.04
2018-09-26T08:29:55.953Z,45.48
2018-09-26T08:32:25.055Z,44.46
2018-09-26T08:34:54.016Z,44.48
2018-09-26T08:37:22.919Z,43.10
2018-09-26T08:39:51.940Z,42.22
2018-09-26T08:42:20.787Z,41.47
2018-09-26T08:44:49.644Z,42.13
2018-09-26T08:47:18.569Z,40.99
2018-09-26T08:49:47.581Z,40.05
2018-09-26T08:52:16.836Z,41.05
2018-09-26T08:54:45.760Z,40.30
2018-09-26T08:57:14.685Z,40.30
2018-09-26T08:59:43.661Z,39.63
2018-09-26T09:02:12.628Z,39.08
2018-09-26T09:04:41.847Z,38.29
2018-09-26T09:07:10.668Z,38.74
2018-09-26T09:09:39.657Z,39.25
2018-09-26T09:12:08.664Z,38.76
2018-09-26T09:14:37.782Z,37.93
2018-09-26T09:17:07.323Z,37.75
2018-09-26T09:19:36.135Z,38.50
2018-09-26T09:22:05.111Z,38.67
2018-09-26T09:24:33.987Z,39.22
2018-09-26T09:27:03.142Z,38.85
2018-09-26T09:29:32.329Z,38.69
2018-09-26T09:32:01.164Z,39.04
2018-09-26T09:34:30.053Z,38.83
2018-09-26T09:36:58.856Z,39.20
2018-09-26T09:39:27.861Z,38.65
2018-09-26T09:41:56.781Z,38.57
2018-09-26T09:44:25.738Z,37.98
2018-09-26T09:46:54.827Z,37.07
2018-09-26T09:49:23.883Z,36.69
2018-09-26T09:51:52.750Z,37.45
2018-09-26T09:54:21.665Z,37.49
2018-09-26T09:56:50.598Z,37.40
2018-09-26T09:59:19.484Z,36.98
2018-09-26T10:01:48.307Z,36.82
2018-09-26T10:04:17.137Z,37.64
2018-09-26T10:06:45.986Z,36.69
2018-09-26T10:09:14.823Z,36.68
2018-09-26T10:11:43.758Z,36.07
2018-09-26T10:14:12.611Z,35.81
2018-09-26T10:16:41.508Z,35.71
2018-09-26T10:19:10.313Z,34.82
2018-09-26T10:21:39.100Z,35.64
2018-09-26T10:24:07.686Z,36.89
2018-09-26T10:26:36.593Z,36.61
2018-09-26T10:29:05.483Z,36.69
2018-09-26T10:31:34.363Z,35.98
2018-09-26T10:34:03.123Z,34.97
2018-09-26T10:36:32.028Z,36.21
2018-09-26T10:39:00.989Z,35.81
2018-09-26T10:41:29.876Z,36.62
2018-09-26T10:43:59.362Z,36.47
2018-09-26T10:46:28.454Z,36.38
2018-09-26T10:48:57.557Z,35.89
2018-09-26T10:51:26.400Z,35.37
2018-09-26T10:53:55.309Z,36.31
2018-09-26T10:56:24.350Z,35.61
2018-09-26T10:58:53.337Z,36.11
2018-09-26T11:01:22.167Z,36.14
2018-09-26T11:03:50.960Z,35.62
2018-09-26T11:06:19.815Z,35.06
2018-09-26T11:08:48.876Z,35.04
2018-09-26T11:11:17.768Z,34.89
2018-09-26T11:13:46.767Z,34.70
2018-09-26T11:16:15.606Z,35.24
2018-09-26T11:18:44.533Z,35.29
2018-09-26T11:21:13.646Z,35.86
2018-09-26T11:23:42.720Z,36.63
2018-09-26T11:26:11.551Z,36.20
2018-09-26T11:28:40.512Z,36.66
2018-09-26T11:31:09.601Z,36.00
2018-09-26T11:33:38.519Z,35.91
2018-09-26T11:36:07.451Z,35.48
2018-09-26T11:38:36.388Z,35.89
2018-09-26T11:41:05.320Z,36.34
2018-09-26T11:43:34.141Z,35.79
2018-09-26T11:46:02.954Z,36.59
2018-09-26T11:48:31.832Z,35.88
2018-09-26T11:51:00.743Z,35.81
2018-09-26T11:53:29.712Z,34.29
2018-09-26T11:55:58.614Z,34.38
2018-09-26T11:58:27.658Z,34.34
2018-09-26T12:00:56.714Z,33.64
2018-09-26T12:03:25.524Z,34.55
2018-09-26T12:05:54.449Z,34.06
2018-09-26T12:08:23.439Z,34.66
2018-09-26T12:10:52.441Z,33.43
2018-09-26T12:13:21.260Z,33.11
2018-09-26T12:15:50.148Z,33.22
2018-09-26T12:18:19.153Z,32.76
2018-09-26T12:20:48.239Z,33.27
2018-09-26T12:23:17.044Z,33.39
2018-09-26T12:25:45.981Z,34.89
2018-09-26T12:28:14.815Z,35.50
2018-09-26T12:30:43.828Z,34.50
2018-09-26T12:33:12.817Z,34.99
2018-09-26T12:35:41.793Z,36.05
2018-09-26T12:38:10.638Z,35.40
2018-09-26T12:40:39.491Z,36.23
2018-09-26T12:43:08.500Z,36.80
2018-09-26T12:45:37.366Z,36.19
2018-09-26T12:48:06.707Z,36.66
2018-09-26T12:50:35.894Z,36.00
2018-09-26T12:53:04.793Z,35.78
2018-09-26T12:55:33.678Z,35.67
2018-09-26T12:58:02.554Z,35.77
2018-09-26T13:00:31.946Z,36.10
2018-09-26T13:03:01.153Z,36.73
2018-09-26T13:05:30.055Z,36.57
2018-09-26T13:07:58.889Z,36.26
2018-09-26T13:10:27.746Z,35.35
2018-09-26T13:12:56.718Z,35.44
2018-09-26T13:15:25.542Z,35.69
2018-09-26T13:17:54.356Z,36.96
2018-09-26T13:20:23.699Z,36.03
2018-09-26T13:22:52.699Z,36.08
2018-09-26T13:25:21.805Z,36.19
2018-09-26T13:27:50.891Z,36.52
2018-09-26T13:30:19.747Z,36.25
2018-09-26T13:32:48.872Z,36.09
2018-09-26T13:35:17.689Z,35.89
2018-09-26T13:37:46.580Z,35.50
2018-09-26T13:40:15.528Z,36.04
2018-09-26T13:42:44.689Z,35.54
2018-09-26T13:45:13.634Z,35.26
2018-09-26T13:47:42.587Z,35.91
2018-09-26T13:50:11.537Z,35.69
2018-09-26T13:52:40.576Z,35.49
2018-09-26T13:55:09.345Z,34.78
2018-09-26T13:57:38.250Z,34.82
2018-09-26T14:00:07.861Z,35.77
2018-09-26T14:02:36.942Z,35.47
2018-09-26T14:05:06.253Z,34.70
2018-09-26T14:07:35.096Z,34.94
2018-09-26T14:10:03.962Z,35.28
2018-09-26T14:12:32.847Z,35.09
2018-09-26T14:15:01.835Z,36.24
2018-09-26T14:17:30.682Z,36.83
2018-09-26T14:19:59.480Z,36.86
2018-09-26T14:22:28.574Z,36.45
2018-09-26T14:24:57.563Z,36.35
2018-09-26T14:27:26.467Z,36.95
2018-09-26T14:29:55.545Z,36.88
2018-09-26T14:32:24.495Z,36.38
2018-09-26T14:34:53.509Z,36.60
2018-09-26T14:37:22.279Z,36.72
2018-09-26T14:39:51.184Z,36.64
2018-09-26T14:42:20.049Z,36.01
2018-09-26T14:44:48.873Z,36.10
2018-09-26T14:47:17.765Z,35.41
2018-09-26T14:49:46.727Z,35.67
2018-09-26T14:52:15.607Z,35.16
2018-09-26T14:54:44.423Z,35.83
2018-09-26T14:57:13.316Z,36.26
2018-09-26T14:59:42.525Z,36.03
2018-09-26T15:02:11.472Z,36.61
2018-09-26T15:04:40.674Z,36.33
2018-09-26T15:07:09.723Z,36.57
2018-09-26T15:09:38.652Z,36.62
2018-09-26T15:12:07.714Z,36.05
2018-09-26T15:14:36.820Z,36.22
2018-09-26T15:17:06.021Z,35.75
2018-09-26T15:19:34.800Z,35.99
2018-09-26T15:22:03.584Z,36.71
2018-09-26T15:24:32.446Z,36.74
2018-09-26T15:27:01.391Z,36.58
2018-09-26T15:29:30.320Z,37.41
2018-09-26T15:31:59.092Z,36.62
2018-09-26T15:34:27.969Z,36.92
2018-09-26T15:36:56.795Z,37.38
2018-09-26T15:39:25.539Z,37.57
2018-09-26T15:41:54.357Z,37.94
2018-09-26T15:44:23.355Z,38.12
2018-09-26T15:46:52.345Z,38.48
2018-09-26T15:49:21.161Z,38.07
2018-09-26T15:51:50.012Z,38.56
2018-09-26T15:54:18.825Z,38.30
2018-09-26T15:56:47.869Z,39.13
2018-09-26T15:59:16.663Z,39.52
2018-09-26T16:01:45.537Z,39.03
2018-09-26T16:04:15.754Z,39.16
2018-09-26T16:06:45.605Z,39.62
2018-09-26T16:09:17.280Z,39.84
2018-09-26T16:11:46.104Z,39.15
2018-09-26T16:14:15.047Z,38.74
2018-09-26T16:16:44.073Z,39.29
2018-09-26T16:19:12.997Z,39.33
2018-09-26T16:21:42.084Z,38.87
2018-09-26T16:24:11.022Z,39.51
2018-09-26T16:26:40.096Z,39.77
2018-09-26T16:29:09.043Z,40.35
2018-09-26T16:31:37.966Z,39.50
2018-09-26T16:34:07.028Z,40.42
2018-09-26T16:36:35.890Z,39.57
2018-09-26T16:39:06.593Z,39.83
2018-09-26T16:41:36.547Z,38.64
2018-09-26T16:44:05.511Z,38.27
2018-09-26T16:46:34.717Z,37.85
2018-09-26T16:49:03.603Z,38.54
2018-09-26T16:51:32.408Z,38.84
2018-09-26T16:54:01.227Z,38.94
2018-09-26T16:56:30.144Z,38.39
2018-09-26T16:58:59.441Z,38.68
2018-09-26T17:01:28.315Z,38.45
2018-09-26T17:03:57.116Z,38.37
2018-09-26T17:06:25.970Z,38.78
2018-09-26T17:08:55.010Z,38.48
2018-09-26T17:11:23.856Z,39.54
2018-09-26T17:13:52.906Z,39.11
2018-09-26T17:16:21.967Z,38.96
2018-09-26T17:18:50.881Z,39.54
2018-09-26T17:21:19.864Z,39.94
2018-09-26T17:23:48.958Z,39.84
2018-09-26T17:26:17.996Z,40.48
2018-09-26T17:28:47.086Z,40.56
2018-09-26T17:31:16.138Z,40.12
2018-09-26T17:33:45.085Z,39.60
2018-09-26T17:36:13.957Z,39.67
2018-09-26T17:38:43.266Z,39.74
2018-09-26T17:41:12.068Z,40.33
2018-09-26T17:43:40.956Z,39.86
2018-09-26T17:46:09.997Z,40.70
2018-09-26T17:48:38.913Z,40.75
2018-09-26T17:51:07.796Z,40.46
2018-09-26T17:53:37.204Z,40.65
2018-09-26T17:56:05.987Z,40.28
2018-09-26T17:58:34.978Z,41.07
2018-09-26T18:01:03.808Z,40.91
2018-09-26T18:03:32.557Z,41.24
2018-09-26T18:06:01.430Z,40.94
2018-09-26T18:08:30.369Z,41.25
2018-09-26T18:10:59.369Z,41.53
2018-09-26T18:13:28.317Z,42.26
2018-09-26T18:15:57.445Z,41.77
2018-09-26T18:18:33.041Z,42.27
2018-09-26T18:21:01.876Z,42.87
2018-09-26T18:23:30.749Z,42.83
2018-09-26T18:25:59.610Z,43.46
2018-09-26T18:28:28.466Z,43.31
2018-09-26T18:30:57.353Z,43.45
2018-09-26T18:33:26.143Z,43.80
2018-09-26T18:35:55.015Z,44.20
2018-09-26T18:38:23.859Z,44.33
2018-09-26T18:40:52.705Z,44.30
2018-09-26T18:43:21.472Z,44.88
2018-09-26T18:45:50.764Z,44.98
2018-09-26T18:48:19.737Z,45.05
2018-09-26T18:50:48.568Z,45.75
2018-09-26T18:53:17.359Z,45.45
2018-09-26T18:55:46.526Z,45.29
2018-09-26T18:58:15.316Z,45.07
2018-09-26T19:00:44.238Z,46.17
2018-09-26T19:03:13.709Z,45.45
2018-09-26T19:05:42.537Z,45.94
2018-09-26T19:08:11.430Z,45.28
2018-09-26T19:10:40.283Z,45.56
2018-09-26T19:13:09.170Z,45.75
2018-09-26T19:15:38.062Z,45.73
2018-09-26T19:18:06.898Z,46.60
2018-09-26T19:20:35.748Z,46.87
2018-09-26T19:23:04.584Z,47.56
2018-09-26T19:25:33.364Z,47.78
2018-09-26T19:28:02.221Z,47.99
2018-09-26T19:30:31.282Z,47.70
2018-09-26T19:33:00.239Z,48.52
2018-09-26T19:35:29.103Z,48.17
2018-09-26T19:37:57.985Z,48.87
2018-09-26T19:40:26.915Z,48.49
2018-09-26T19:42:55.773Z,48.93
2018-09-26T19:45:24.667Z,49.28
2018-09-26T19:47:53.821Z,49.69
2018-09-26T19:50:22.648Z,50.21
2018-09-26T19:52:51.839Z,49.27
2018-09-26T19:55:20.649Z,47.66
2018-09-26T19:57:49.760Z,47.34
2018-09-26T20:00:18.568Z,47.36
2018-09-26T20:02:47.453Z,47.48
2018-09-26T20:05:16.434Z,47.74
2018-09-26T20:07:45.257Z,48.51
2018-09-26T20:10:14.075Z,49.23
2018-09-26T20:12:43.174Z,49.40
2018-09-26T20:15:12.084Z,50.51
2018-09-26T20:17:40.941Z,50.30
2018-09-26T20:20:09.887Z,50.47
2018-09-26T20:22:38.717Z,51.21
2018-09-26T20:25:07.726Z,51.39
2018-09-26T20:27:36.801Z,51.20
2018-09-26T20:30:07.164Z,51.16
2018-09-26T20:32:35.928Z,51.71
2018-09-26T20:35:05.054Z,51.14
2018-09-26T20:37:34.123Z,51.30
2018-09-26T20:40:02.965Z,51.16
2018-09-26T20:42:31.825Z,51.40
2018-09-26T20:45:00.949Z,51.83
2018-09-26T20:47:30.067Z,52.64
2018-09-26T20:49:58.865Z,52.95
2018-09-26T20:52:27.654Z,53.28
2018-09-26T20:54:56.495Z,53.41
2018-09-26T20:57:25.300Z,52.69
2018-09-26T20:59:54.173Z,52.76
2018-09-26T21:02:23.084Z,52.77
2018-09-26T21:04:51.904Z,52.08
2018-09-26T21:07:20.766Z,51.99
2018-09-26T21:09:49.575Z,50.97
2018-09-26T21:12:18.402Z,51.15
2018-09-26T21:14:47.266Z,51.42
2018-09-26T21:17:16.205Z,51.46
2018-09-26T21:19:45.129Z,51.58
2018-09-26T21:22:14.063Z,52.27
2018-09-26T21:24:42.876Z,52.20
2018-09-26T21:27:11.715Z,51.86
2018-09-26T21:29:40.483Z,51.87
2018-09-26T21:32:09.299Z,52.41
2018-09-26T21:34:38.192Z,52.46
2018-09-26T21:37:06.971Z,53.02
2018-09-26T21:39:36.044Z,53.93
2018-09-26T21:42:04.935Z,54.17
2018-09-26T21:44:33.741Z,54.70
2018-09-26T21:47:02.575Z,54.75
2018-09-26T21:49:31.392Z,54.87
2018-09-26T21:52:00.288Z,55.32
2018-09-26T21:54:29.193Z,55.89
2018-09-26T21:56:58.044Z,55.60
2018-09-26T21:59:26.877Z,55.64
2018-09-26T22:01:55.680Z,56.04
2018-09-26T22:04:24.520Z,55.84
2018-09-26T22:06:53.587Z,55.82
2018-09-26T22:09:22.351Z,55.49
2018-09-26T22:11:51.207Z,55.85
2018-09-26T22:14:20.128Z,56.09
2018-09-26T22:16:48.931Z,56.63
2018-09-26T22:19:17.824Z,56.23
2018-09-26T22:21:53.247Z,55.90
2018-09-26T22:24:22.261Z,56.27
2018-09-26T22:26:51.039Z,56.44
2018-09-26T22:29:19.884Z,56.58
2018-09-26T22:31:48.904Z,56.44
2018-09-26T22:34:17.693Z,56.43
2018-09-26T22:36:46.587Z,56.45
2018-09-26T22:39:15.465Z,56.31
2018-09-26T22:41:44.220Z,56.37
2018-09-26T22:44:13.064Z,56.27
2018-09-26T22:46:41.848Z,55.92
2018-09-26T22:49:10.579Z,55.37
2018-09-26T22:51:39.431Z,56.21
2018-09-26T22:54:08.193Z,56.14
2018-09-26T22:56:36.952Z,55.95
2018-09-26T22:59:05.891Z,55.91
2018-09-26T23:01:34.676Z,55.99
2018-09-26T23:04:03.542Z,56.74
2018-09-26T23:06:32.440Z,56.65
2018-09-26T23:09:01.332Z,56.13
2018-09-26T23:11:30.432Z,56.15
2018-09-26T23:13:59.292Z,55.91
2018-09-26T23:16:28.152Z,56.59
2018-09-26T23:18:57.035Z,57.22
2018-09-26T23:21:25.888Z,57.92
2018-09-26T23:23:54.902Z,58.03
2018-09-26T23:26:23.780Z,58.85
2018-09-26T23:28:52.676Z,59.03
2018-09-26T23:31:21.619Z,58.82
2018-09-26T23:33:50.757Z,59.19
2018-09-26T23:36:19.520Z,59.73
2018-09-26T23:38:48.268Z,60.09
2018-09-26T23:41:17.177Z,60.26
2018-09-26T23:43:45.992Z,60.37
2018-09-26T23:46:14.804Z,60.55
2018-09-26T23:48:43.823Z,59.88
2018-09-26T23:51:12.630Z,59.92
2018-09-26T23:53:41.472Z,59.66
2018-09-26T23:56:10.323Z,60.44
2018-09-26T23:58:39.189Z,60.29
